createdAt,value
2023-03-15T00:02:02.996Z,94150.69
2023-03-15T00:04:32.495Z,94160.38
2023-03-15T00:07:00.320Z,94161.44
2023-03-15T00:09:28.663Z,94163.31
2023-03-15T00:11:57.664Z,94165.38
2023-03-15T00:14:25.310Z,94158.44
2023-03-15T00:16:54.710Z,94146.81
2023-03-15T00:19:22.375Z,94137.91
2023-03-15T00:21:50.139Z,94137.53
2023-03-15T00:24:17.805Z,94136.72
2023-03-15T00:26:45.428Z,94133.41
2023-03-15T00:29:14.435Z,94145.22
2023-03-15T00:31:42.082Z,94137.75
2023-03-15T00:34:09.684Z,94135.44
2023-03-15T00:36:37.721Z,94136.66
2023-03-15T00:39:05.631Z,94145.56
2023-03-15T00:41:33.269Z,94145.13
2023-03-15T00:44:00.868Z,94157.78
2023-03-15T00:46:29.956Z,94203.88
2023-03-15T00:48:57.592Z,94225.31
2023-03-15T00:51:25.483Z,94227.16
2023-03-15T00:53:54.221Z,94228.88
2023-03-15T00:56:23.284Z,94233.41
2023-03-15T00:58:52.840Z,94249.47
2023-03-15T01:01:23.131Z,94232.59
2023-03-15T01:03:52.415Z,94208.06
2023-03-15T01:06:22.076Z,94209.28
2023-03-15T01:08:50.109Z,94207.22
2023-03-15T01:11:19.625Z,94201.03
2023-03-15T01:13:47.281Z,94203.91
2023-03-15T01:16:15.746Z,94193.78
2023-03-15T01:18:43.800Z,94186.78
2023-03-15T01:21:14.489Z,94217.94
2023-03-15T01:23:42.423Z,94227.63
2023-03-15T01:26:13.716Z,94220.19
2023-03-15T01:28:41.345Z,94220.00
2023-03-15T01:31:11.042Z,94216.50
2023-03-15T01:33:38.624Z,94226.19
2023-03-15T01:36:07.935Z,94218.34
2023-03-15T01:38:36.924Z,94223.91
2023-03-15T01:41:04.807Z,94228.44
2023-03-15T01:43:33.433Z,94233.59
2023-03-15T01:46:19.513Z,94240.03
2023-03-15T01:48:49.964Z,94249.28
2023-03-15T01:51:22.794Z,94252.16
2023-03-15T01:53:54.819Z,94243.31
2023-03-15T01:56:22.506Z,94247.84
2023-03-15T01:58:51.476Z,94250.75
2023-03-15T02:01:20.358Z,94253.63
2023-03-15T02:03:49.048Z,94263.09
2023-03-15T02:06:19.565Z,94269.09
2023-03-15T02:08:52.639Z,94272.81
2023-03-15T02:11:22.445Z,94274.47
2023-03-15T02:13:50.587Z,94279.84
2023-03-15T02:16:19.479Z,94284.16
2023-03-15T02:18:47.112Z,94288.28
2023-03-15T02:21:25.131Z,94286.22
2023-03-15T02:24:00.436Z,94297.34
2023-03-15T02:26:31.599Z,94293.66
2023-03-15T02:29:01.214Z,94301.50
2023-03-15T02:31:37.806Z,94306.00
2023-03-15T02:34:06.790Z,94320.06
2023-03-15T02:36:36.065Z,94318.63
2023-03-15T02:39:14.933Z,94317.59
2023-03-15T02:41:45.165Z,94331.00
2023-03-15T02:44:16.320Z,94343.97
2023-03-15T02:46:44.220Z,94350.00
2023-03-15T02:49:13.365Z,94360.91
2023-03-15T02:51:41.057Z,94394.94
2023-03-15T02:54:08.704Z,94396.94
2023-03-15T02:56:36.357Z,94414.47
2023-03-15T02:59:03.988Z,94428.25
2023-03-15T03:01:32.996Z,94438.69
2023-03-15T03:04:00.659Z,94450.63
2023-03-15T03:06:28.322Z,94451.44
2023-03-15T03:08:55.942Z,94466.50
2023-03-15T03:11:23.688Z,94467.94
2023-03-15T03:13:51.267Z,94477.34
2023-03-15T03:16:18.946Z,94484.91
2023-03-15T03:18:47.941Z,94493.19
2023-03-15T03:21:15.823Z,94500.44
2023-03-15T03:23:46.128Z,94522.91
2023-03-15T03:26:16.650Z,94522.44
2023-03-15T03:28:45.645Z,94527.16
2023-03-15T03:31:21.088Z,94534.56
2023-03-15T03:33:50.261Z,94533.66
2023-03-15T03:36:18.032Z,94551.84
2023-03-15T03:38:47.009Z,94566.72
2023-03-15T03:41:15.491Z,94576.25
2023-03-15T03:43:43.113Z,94568.84
2023-03-15T03:46:10.822Z,94575.91
2023-03-15T03:48:38.442Z,94588.88
2023-03-15T03:51:07.855Z,94596.81
2023-03-15T03:53:35.458Z,94609.31
2023-03-15T03:56:05.681Z,94600.88
2023-03-15T03:58:33.381Z,94614.53
2023-03-15T04:01:01.148Z,94615.78
2023-03-15T04:03:28.736Z,94623.41
2023-03-15T04:05:57.208Z,94631.94
2023-03-15T04:08:27.001Z,94628.81
2023-03-15T04:10:55.313Z,94634.69
2023-03-15T04:13:23.819Z,94638.66
2023-03-15T04:15:52.118Z,94640.59
2023-03-15T04:18:19.760Z,94649.59
2023-03-15T04:20:48.628Z,94661.41
2023-03-15T04:23:18.043Z,94657.94
2023-03-15T04:25:49.456Z,94659.47
2023-03-15T04:28:17.054Z,94668.34
2023-03-15T04:30:44.938Z,94668.97
2023-03-15T04:33:12.722Z,94671.84
2023-03-15T04:35:42.533Z,94679.88
2023-03-15T04:38:10.556Z,94686.59
2023-03-15T04:40:38.285Z,94695.16
2023-03-15T04:43:07.272Z,94697.56
2023-03-15T04:45:34.980Z,94704.81
2023-03-15T04:48:03.247Z,94702.25
2023-03-15T04:50:31.476Z,94709.41
2023-03-15T04:52:59.536Z,94713.38
2023-03-15T04:55:27.453Z,94714.06
2023-03-15T04:57:55.393Z,94717.47
2023-03-15T05:00:24.672Z,94724.09
2023-03-15T05:02:54.946Z,94725.56
2023-03-15T05:05:23.800Z,94735.72
2023-03-15T05:07:51.686Z,94738.66
2023-03-15T05:10:19.508Z,94742.34
2023-03-15T05:12:47.192Z,94747.38
2023-03-15T05:15:14.902Z,94746.25
2023-03-15T05:17:46.497Z,94752.69
2023-03-15T05:20:14.888Z,94757.97
2023-03-15T05:22:42.740Z,94765.44
2023-03-15T05:25:11.745Z,94770.53
2023-03-15T05:27:39.702Z,94775.22
2023-03-15T05:30:08.977Z,94780.72
2023-03-15T05:32:39.493Z,94788.44
2023-03-15T05:35:09.938Z,94798.34
2023-03-15T05:37:37.592Z,94796.28
2023-03-15T05:40:08.179Z,94800.63
2023-03-15T05:42:36.205Z,94799.22
2023-03-15T05:45:04.090Z,94808.75
2023-03-15T05:47:33.218Z,94810.25
2023-03-15T05:50:01.688Z,94819.91
2023-03-15T05:52:30.669Z,94822.41
2023-03-15T05:54:58.375Z,94828.06
2023-03-15T05:57:25.991Z,94823.34
2023-03-15T05:59:55.015Z,94834.72
2023-03-15T06:02:22.751Z,94843.03
2023-03-15T06:04:50.574Z,94840.53
2023-03-15T06:07:18.381Z,94831.47
2023-03-15T06:09:47.402Z,94844.59
2023-03-15T06:12:15.352Z,94843.22
2023-03-15T06:14:42.984Z,94840.16
2023-03-15T06:17:10.575Z,94842.25
2023-03-15T06:19:38.201Z,94848.66
2023-03-15T06:22:05.942Z,94855.88
2023-03-15T06:24:33.732Z,94848.91
2023-03-15T06:27:02.875Z,94852.47
2023-03-15T06:29:30.915Z,94862.72
2023-03-15T06:31:58.586Z,94866.47
2023-03-15T06:34:26.232Z,94869.81
2023-03-15T06:36:53.873Z,94866.47
2023-03-15T06:39:21.472Z,94868.72
2023-03-15T06:41:49.077Z,94873.13
2023-03-15T06:44:18.057Z,94875.25
2023-03-15T06:46:45.641Z,94875.69
2023-03-15T06:49:13.303Z,94879.72
2023-03-15T06:51:42.586Z,94878.84
2023-03-15T06:54:10.215Z,94878.56
2023-03-15T06:56:38.452Z,94886.13
2023-03-15T06:59:07.644Z,94887.88
2023-03-15T07:01:36.674Z,94896.22
2023-03-15T07:04:05.232Z,94904.19
2023-03-15T07:06:33.670Z,94902.81
2023-03-15T07:09:01.281Z,94911.53
2023-03-15T07:11:28.889Z,94906.41
2023-03-15T07:13:56.649Z,94915.09
2023-03-15T07:16:24.369Z,94913.59
2023-03-15T07:18:55.464Z,94915.44
2023-03-15T07:21:23.284Z,94909.84
2023-03-15T07:23:50.870Z,94922.44
2023-03-15T07:26:18.513Z,94920.56
2023-03-15T07:28:46.548Z,94916.72
2023-03-15T07:31:14.670Z,94923.16
2023-03-15T07:33:42.355Z,94921.84
2023-03-15T07:36:11.428Z,94921.66
2023-03-15T07:38:40.347Z,94926.44
2023-03-15T07:41:09.654Z,94921.13
2023-03-15T07:43:37.324Z,94924.50
2023-03-15T07:46:05.409Z,94923.88
2023-03-15T07:48:33.075Z,94928.88
2023-03-15T07:51:00.840Z,94932.03
2023-03-15T07:53:29.879Z,94932.69
2023-03-15T07:55:57.576Z,94931.47
2023-03-15T07:58:25.207Z,94927.16
2023-03-15T08:00:55.746Z,94924.91
2023-03-15T08:03:24.139Z,94923.81
2023-03-15T08:05:51.861Z,94928.38
2023-03-15T08:08:19.622Z,94920.31
2023-03-15T08:10:48.702Z,94916.41
2023-03-15T08:13:16.382Z,94923.66
2023-03-15T08:15:46.743Z,94918.31
2023-03-15T08:18:14.429Z,94915.22
2023-03-15T08:20:42.100Z,94911.91
2023-03-15T08:23:09.871Z,94909.84
2023-03-15T08:25:40.906Z,94913.94
2023-03-15T08:28:10.112Z,94911.91
2023-03-15T08:30:38.096Z,94908.38
2023-03-15T08:33:06.149Z,94913.56
2023-03-15T08:35:34.392Z,94912.75
2023-03-15T08:38:02.735Z,94913.56
2023-03-15T08:40:31.272Z,94912.72
2023-03-15T08:42:59.077Z,94911.22
2023-03-15T08:45:28.460Z,94904.75
2023-03-15T08:47:56.885Z,94904.38
2023-03-15T08:50:25.174Z,94915.41
2023-03-15T08:52:52.834Z,94905.69
2023-03-15T08:55:20.684Z,94905.69
2023-03-15T08:57:48.393Z,94911.47
2023-03-15T09:00:20.674Z,94902.69
2023-03-15T09:02:51.906Z,94900.19
2023-03-15T09:05:20.255Z,94900.00
2023-03-15T09:07:48.372Z,94909.31
2023-03-15T09:10:17.924Z,94905.09
2023-03-15T09:12:47.470Z,94907.97
2023-03-15T09:15:15.740Z,94909.75
2023-03-15T09:17:43.824Z,94906.16
2023-03-15T09:20:16.814Z,94909.50
2023-03-15T09:22:45.533Z,94913.31
2023-03-15T09:25:13.253Z,94906.94
2023-03-15T09:27:40.848Z,94908.88
2023-03-15T09:30:09.544Z,94908.59
2023-03-15T09:32:37.203Z,94920.97
2023-03-15T09:35:05.023Z,94919.91
2023-03-15T09:37:34.782Z,94925.03
2023-03-15T09:40:04.016Z,94919.19
2023-03-15T09:42:36.510Z,94922.28
2023-03-15T09:45:08.995Z,94927.13
2023-03-15T09:47:44.042Z,94929.31
2023-03-15T09:50:19.746Z,94928.22
2023-03-15T09:52:50.362Z,94934.72
2023-03-15T09:55:21.941Z,94939.28
2023-03-15T09:57:52.153Z,94928.81
2023-03-15T10:00:22.508Z,94932.53
2023-03-15T10:02:57.680Z,94935.72
2023-03-15T10:05:30.075Z,94930.16
2023-03-15T10:07:59.002Z,94925.47
2023-03-15T10:10:29.688Z,94930.44
2023-03-15T10:13:02.548Z,94931.41
2023-03-15T10:15:37.265Z,94936.41
2023-03-15T10:18:18.229Z,94932.44
2023-03-15T10:20:48.237Z,94937.38
2023-03-15T10:23:21.211Z,94931.63
2023-03-15T10:25:51.156Z,94926.09
2023-03-15T10:28:25.495Z,94930.53
2023-03-15T10:30:53.788Z,94925.75
2023-03-15T10:33:27.532Z,94931.28
2023-03-15T10:36:04.302Z,94922.50
2023-03-15T10:38:39.833Z,94924.22
2023-03-15T10:41:08.875Z,94920.66
2023-03-15T10:43:39.708Z,94920.50
2023-03-15T10:46:09.031Z,94922.19
2023-03-15T10:48:38.095Z,94917.84
2023-03-15T10:51:07.851Z,94913.25
2023-03-15T10:53:35.839Z,94907.53
2023-03-15T10:56:07.999Z,94909.97
2023-03-15T10:58:42.297Z,94911.31
2023-03-15T11:01:14.737Z,94915.84
2023-03-15T11:03:43.966Z,94920.66
2023-03-15T11:06:21.341Z,94915.91
2023-03-15T11:08:49.011Z,94918.28
2023-03-15T11:11:18.049Z,94919.38
2023-03-15T11:13:56.769Z,94910.13
2023-03-15T11:16:24.400Z,94913.25
2023-03-15T11:18:57.029Z,94905.88
2023-03-15T11:21:28.953Z,94914.38
2023-03-15T11:23:56.693Z,94913.38
2023-03-15T11:26:32.711Z,94909.97
2023-03-15T11:29:02.518Z,94907.75
2023-03-15T11:31:31.377Z,94914.78
2023-03-15T11:34:01.663Z,94912.22
2023-03-15T11:36:31.844Z,94917.75
2023-03-15T11:39:03.089Z,94906.56
2023-03-15T11:41:36.467Z,94907.88
2023-03-15T11:44:10.757Z,94902.94
2023-03-15T11:46:42.674Z,94902.00
2023-03-15T11:49:14.377Z,94903.19
2023-03-15T11:51:42.167Z,94900.53
2023-03-15T11:54:13.606Z,94903.47
2023-03-15T11:56:52.057Z,94899.78
2023-03-15T11:59:21.594Z,94890.97
2023-03-15T12:01:50.572Z,94882.16
2023-03-15T12:04:44.857Z,94882.09
2023-03-15T12:07:40.682Z,94885.59
2023-03-15T12:10:46.415Z,94880.63
2023-03-15T12:13:25.763Z,94875.41
2023-03-15T12:15:54.316Z,94873.72
2023-03-15T12:18:32.324Z,94868.19
2023-03-15T12:21:15.541Z,94870.09
2023-03-15T12:23:47.492Z,94863.91
2023-03-15T12:26:24.529Z,94867.47
2023-03-15T12:29:03.904Z,94863.72
2023-03-15T12:31:45.919Z,94853.59
2023-03-15T12:34:15.898Z,94842.63
2023-03-15T12:36:48.275Z,94845.91
2023-03-15T12:39:37.716Z,94857.75
2023-03-15T12:42:05.812Z,94848.75
2023-03-15T12:44:40.902Z,94855.25
2023-03-15T12:47:09.020Z,94856.81
2023-03-15T12:49:39.545Z,94852.81
2023-03-15T12:52:14.451Z,94854.88
2023-03-15T12:54:45.393Z,94853.00
2023-03-15T12:57:14.480Z,94855.34
2023-03-15T12:59:50.525Z,94858.69
2023-03-15T13:02:41.712Z,94849.31
2023-03-15T13:05:18.518Z,94852.53
2023-03-15T13:07:55.887Z,94850.91
2023-03-15T13:10:56.311Z,94848.03
2023-03-15T13:13:46.065Z,94856.47
2023-03-15T13:16:24.502Z,94852.44
2023-03-15T13:18:58.100Z,94850.69
2023-03-15T13:21:27.753Z,94844.50
2023-03-15T13:23:59.009Z,94855.84
2023-03-15T13:26:35.461Z,94855.84
2023-03-15T13:29:06.408Z,94851.81
2023-03-15T13:31:35.521Z,94860.84
2023-03-15T13:34:12.656Z,94859.28
2023-03-15T13:36:41.658Z,94853.81
2023-03-15T13:39:13.049Z,94858.78
2023-03-15T13:41:40.684Z,94865.06
2023-03-15T13:44:17.301Z,94861.84
2023-03-15T13:46:47.870Z,94863.72
2023-03-15T13:49:15.592Z,94861.03
2023-03-15T13:51:43.672Z,94864.50
2023-03-15T13:54:15.873Z,94873.09
2023-03-15T13:56:49.645Z,94867.69
2023-03-15T13:59:18.290Z,94866.84
2023-03-15T14:01:47.634Z,94864.22
2023-03-15T14:04:17.917Z,94863.59
2023-03-15T14:06:46.688Z,94860.44
2023-03-15T14:09:19.784Z,94861.97
2023-03-15T14:11:47.430Z,94860.00
2023-03-15T14:14:23.619Z,94861.03
2023-03-15T14:17:04.752Z,94867.22
2023-03-15T14:19:34.838Z,94874.34
2023-03-15T14:22:03.802Z,94874.88
2023-03-15T14:24:33.389Z,94879.84
2023-03-15T14:27:02.269Z,94876.31
2023-03-15T14:29:31.672Z,94876.69
2023-03-15T14:32:05.791Z,94868.19
2023-03-15T14:34:35.703Z,94869.00
2023-03-15T14:37:05.799Z,94872.94
2023-03-15T14:39:39.782Z,94862.19
2023-03-15T14:42:07.977Z,94869.25
2023-03-15T14:44:35.560Z,94861.19
2023-03-15T14:47:08.103Z,94865.94
2023-03-15T14:49:35.750Z,94863.59
2023-03-15T14:52:05.500Z,94862.72
2023-03-15T14:54:33.720Z,94858.19
2023-03-15T14:57:01.397Z,94870.22
2023-03-15T14:59:28.999Z,94861.03
2023-03-15T15:01:59.024Z,94865.25
2023-03-15T15:04:33.448Z,94855.63
2023-03-15T15:07:03.104Z,94854.75
2023-03-15T15:09:31.586Z,94862.84
2023-03-15T15:11:59.192Z,94860.28
2023-03-15T15:14:26.850Z,94859.47
2023-03-15T15:16:54.523Z,94860.91
2023-03-15T15:19:22.218Z,94864.81
2023-03-15T15:21:51.218Z,94859.09
2023-03-15T15:24:21.172Z,94860.44
2023-03-15T15:26:49.025Z,94864.84
2023-03-15T15:29:17.615Z,94868.06
2023-03-15T15:31:46.179Z,94864.31
2023-03-15T15:34:14.149Z,94874.91
2023-03-15T15:36:43.455Z,94875.13
2023-03-15T15:39:21.846Z,94870.41
2023-03-15T15:41:49.622Z,94883.03
2023-03-15T15:44:18.789Z,94883.75
2023-03-15T15:46:46.485Z,94892.50
2023-03-15T15:49:14.681Z,94892.38
2023-03-15T15:51:45.750Z,94892.94
2023-03-15T15:54:16.724Z,94903.81
2023-03-15T15:56:48.866Z,94911.34
2023-03-15T15:59:17.939Z,94904.66
2023-03-15T16:01:59.727Z,94903.41
2023-03-15T16:04:28.600Z,94903.41
2023-03-15T16:06:58.563Z,94903.47
2023-03-15T16:09:26.869Z,94915.25
2023-03-15T16:11:56.193Z,94908.19
2023-03-15T16:14:23.858Z,94920.88
2023-03-15T16:16:51.493Z,94918.16
2023-03-15T16:19:19.199Z,94916.53
2023-03-15T16:21:48.976Z,94919.63
2023-03-15T16:24:18.543Z,94925.84
2023-03-15T16:26:46.786Z,94932.91
2023-03-15T16:29:18.920Z,94931.25
2023-03-15T16:31:46.721Z,94935.19
2023-03-15T16:34:15.790Z,94952.47
2023-03-15T16:36:47.140Z,94951.28
2023-03-15T16:39:17.336Z,94953.72
2023-03-15T16:41:44.975Z,94952.91
2023-03-15T16:44:13.945Z,94954.97
2023-03-15T16:46:43.119Z,94961.56
2023-03-15T16:49:11.612Z,94969.22
2023-03-15T16:51:40.541Z,94954.91
2023-03-15T16:54:19.546Z,94963.41
2023-03-15T16:56:52.286Z,94962.78
2023-03-15T16:59:20.100Z,94958.41
2023-03-15T17:01:50.545Z,94970.22
2023-03-15T17:04:18.346Z,94962.56
2023-03-15T17:06:46.838Z,94975.19
2023-03-15T17:09:16.399Z,94978.50
2023-03-15T17:11:45.302Z,94984.34
2023-03-15T17:14:16.552Z,94985.59
2023-03-15T17:16:44.326Z,94988.50
2023-03-15T17:19:14.314Z,95005.75
2023-03-15T17:21:43.213Z,95009.69
2023-03-15T17:24:12.055Z,94996.78
2023-03-15T17:26:41.304Z,95003.44
2023-03-15T17:29:09.515Z,95003.84
2023-03-15T17:31:37.686Z,95005.28
2023-03-15T17:34:05.495Z,95000.09
2023-03-15T17:36:37.447Z,95007.03
2023-03-15T17:39:06.067Z,95012.66
2023-03-15T17:41:36.968Z,95022.22
2023-03-15T17:44:05.208Z,95024.69
2023-03-15T17:46:34.032Z,95034.03
2023-03-15T17:49:02.915Z,95040.03
2023-03-15T17:51:32.595Z,95044.00
2023-03-15T17:54:01.793Z,95045.81
2023-03-15T17:56:29.994Z,95050.78
2023-03-15T17:58:57.648Z,95049.75
2023-03-15T18:01:27.386Z,95049.13
2023-03-15T18:03:55.776Z,95051.97
2023-03-15T18:06:23.730Z,95056.31
2023-03-15T18:08:51.527Z,95060.22
2023-03-15T18:11:24.439Z,95066.84
2023-03-15T18:13:52.376Z,95061.47
2023-03-15T18:16:20.053Z,95067.88
2023-03-15T18:18:47.732Z,95075.53
2023-03-15T18:21:17.351Z,95079.47
2023-03-15T18:23:45.276Z,95076.78
2023-03-15T18:26:13.365Z,95086.06
2023-03-15T18:28:42.448Z,95084.84
2023-03-15T18:31:13.916Z,95090.88
2023-03-15T18:33:41.633Z,95097.91
2023-03-15T18:36:09.468Z,95096.91
2023-03-15T18:39:26.365Z,95094.00
2023-03-15T18:41:54.022Z,95085.72
2023-03-15T18:44:23.087Z,95105.25
2023-03-15T18:46:50.710Z,95105.66
2023-03-15T18:49:18.359Z,95099.19
2023-03-15T18:51:46.074Z,95108.72
2023-03-15T18:54:13.767Z,95109.66
2023-03-15T18:56:43.181Z,95114.50
2023-03-15T18:59:10.913Z,95112.59
2023-03-15T19:01:39.934Z,95111.69
2023-03-15T19:04:07.722Z,95118.69
2023-03-15T19:06:35.391Z,95120.63
2023-03-15T19:09:03.044Z,95120.50
2023-03-15T19:11:31.651Z,95129.28
2023-03-15T19:13:59.674Z,95127.56
2023-03-15T19:16:28.985Z,95128.81
2023-03-15T19:18:58.072Z,95130.56
2023-03-15T19:21:26.427Z,95132.00
2023-03-15T19:23:57.099Z,95130.53
2023-03-15T19:26:25.862Z,95131.59
2023-03-15T19:28:53.512Z,95144.84
2023-03-15T19:31:21.931Z,95142.72
2023-03-15T19:33:49.690Z,95140.47
2023-03-15T19:36:18.792Z,95148.34
2023-03-15T19:38:46.507Z,95142.47
2023-03-15T19:41:14.121Z,95147.03
2023-03-15T19:43:43.540Z,95147.84
2023-03-15T19:46:13.714Z,95148.09
2023-03-15T19:48:41.447Z,95152.31
2023-03-15T19:51:09.029Z,95144.63
2023-03-15T19:53:38.036Z,95142.06
2023-03-15T19:56:06.840Z,95143.88
2023-03-15T19:58:34.512Z,95148.34
2023-03-15T20:01:02.258Z,95152.88
2023-03-15T20:03:29.925Z,95158.84
2023-03-15T20:05:57.568Z,95168.19
2023-03-15T20:08:26.374Z,95164.19
2023-03-15T20:11:02.067Z,95156.81
2023-03-15T20:13:29.679Z,95162.94
2023-03-15T20:15:57.370Z,95170.69
2023-03-15T20:18:25.064Z,95181.13
2023-03-15T20:20:52.711Z,95189.19
2023-03-15T20:23:20.921Z,95184.81
2023-03-15T20:25:50.210Z,95186.56
2023-03-15T20:28:19.301Z,95189.19
2023-03-15T20:30:46.980Z,95192.06
2023-03-15T20:33:15.321Z,95187.13
2023-03-15T20:35:42.989Z,95197.31
2023-03-15T20:38:10.642Z,95191.94
2023-03-15T20:40:39.479Z,95199.81
2023-03-15T20:43:07.728Z,95203.31
2023-03-15T20:45:36.895Z,95200.06
2023-03-15T20:48:04.959Z,95208.56
2023-03-15T20:50:32.720Z,95198.00
2023-03-15T20:53:00.375Z,95205.31
2023-03-15T20:55:28.051Z,95203.00
2023-03-15T20:57:56.114Z,95207.38
2023-03-15T21:00:24.203Z,95212.75
2023-03-15T21:02:53.436Z,95215.06
2023-03-15T21:05:21.131Z,95203.91
2023-03-15T21:07:48.761Z,95200.00
2023-03-15T21:10:16.603Z,95198.34
2023-03-15T21:12:44.882Z,95206.22
2023-03-15T21:15:15.375Z,95202.50
2023-03-15T21:17:43.130Z,95203.53
2023-03-15T21:20:15.298Z,95199.81
2023-03-15T21:22:43.252Z,95196.69
2023-03-15T21:25:11.339Z,95197.69
2023-03-15T21:27:38.997Z,95194.19
2023-03-15T21:30:08.165Z,95198.66
2023-03-15T21:32:35.867Z,95190.81
2023-03-15T21:35:05.011Z,95181.88
2023-03-15T21:37:34.065Z,95185.81
2023-03-15T21:40:01.853Z,95194.56
2023-03-15T21:42:29.507Z,95204.41
2023-03-15T21:44:57.170Z,95211.63
2023-03-15T21:47:24.808Z,95210.19
2023-03-15T21:49:54.044Z,95206.44
2023-03-15T21:52:21.821Z,95202.75
2023-03-15T21:54:50.820Z,95201.72
2023-03-15T21:57:18.478Z,95202.50
2023-03-15T21:59:46.212Z,95198.25
2023-03-15T22:02:14.807Z,95200.03
2023-03-15T22:04:42.738Z,95195.28
2023-03-15T22:07:11.045Z,95195.28
2023-03-15T22:09:39.036Z,95189.53
2023-03-15T22:12:08.876Z,95195.09
2023-03-15T22:14:36.707Z,95206.03
2023-03-15T22:17:04.913Z,95206.44
2023-03-15T22:19:32.817Z,95206.44
2023-03-15T22:22:01.014Z,95207.72
2023-03-15T22:24:28.967Z,95200.94
2023-03-15T22:26:56.680Z,95197.22
2023-03-15T22:29:25.738Z,95197.88
2023-03-15T22:31:53.363Z,95198.72
2023-03-15T22:34:21.011Z,95199.16
2023-03-15T22:36:48.701Z,95196.47
2023-03-15T22:39:16.275Z,95199.16
2023-03-15T22:41:43.879Z,95202.88
2023-03-15T22:44:11.543Z,95204.28
2023-03-15T22:46:40.577Z,95201.78
2023-03-15T22:49:08.211Z,95203.53
2023-03-15T22:51:35.861Z,95215.50
2023-03-15T22:54:03.442Z,95212.19
2023-03-15T22:56:31.302Z,95222.94
2023-03-15T22:58:58.851Z,95226.19
2023-03-15T23:01:26.670Z,95212.94
2023-03-15T23:03:55.684Z,95223.69
2023-03-15T23:06:23.292Z,95219.31
2023-03-15T23:08:50.873Z,95219.50
2023-03-15T23:11:18.476Z,95222.09
2023-03-15T23:13:48.321Z,95212.31
2023-03-15T23:16:16.140Z,95219.25
2023-03-15T23:18:44.109Z,95214.72
2023-03-15T23:21:14.878Z,95216.56
2023-03-15T23:23:43.023Z,95215.81
2023-03-15T23:26:12.807Z,95213.41
2023-03-15T23:28:40.465Z,95213.97
2023-03-15T23:31:08.557Z,95208.41
2023-03-15T23:33:36.266Z,95218.13
2023-03-15T23:36:05.670Z,95206.94
2023-03-15T23:38:35.396Z,95213.16
2023-03-15T23:41:04.926Z,95211.09
2023-03-15T23:43:33.452Z,95225.19
2023-03-15T23:46:04.861Z,95223.16
2023-03-15T23:48:34.476Z,95229.78
2023-03-15T23:51:03.824Z,95211.66
2023-03-15T23:53:31.822Z,95210.34
2023-03-15T23:56:01.380Z,95209.72
2023-03-15T23:58:29.164Z,95222.97
